Time;durP1;ratioP1;P1;durP2;ratioP2;P2;SDS_P1;SDS_P2;PMS_P1;PMS_P2;Temp;Humidity;BMP_temperature;BMP_pressure;BME280_temperature;BME280_humidity;BME280_pressure;Samples;Min_cycle;Max_cycle;Signal;HPM_P1;HPM_P2
2021/12/07 00:01:27;;;;;;;7.60;5.77;;;;;;;;;;5097914;28;20451;-70
2021/12/07 00:03:55;;;;;;;8.37;6.13;;;;;;;;;;5097549;28;20439;-70
2021/12/07 00:06:23;;;;;;;6.83;5.40;;;;;;;;;;5097572;28;20445;-70
2021/12/07 00:08:55;;;;;;;6.23;5.63;;;;;;;;;;5097641;28;20468;-70
2021/12/07 00:11:23;;;;;;;8.60;5.77;;;;;;;;;;5086071;28;20443;-69
2021/12/07 00:13:51;;;;;;;7.90;5.90;;;;;;;;;;5088684;28;20440;-70
2021/12/07 00:16:20;;;;;;;8.77;5.70;;;;;;;;;;5088909;28;20524;-69
2021/12/07 00:18:48;;;;;;;10.13;6.30;;;;;;;;;;5087838;28;20490;-69
2021/12/07 00:21:17;;;;;;;6.50;5.77;;;;;;;;;;5095356;28;20457;-69
2021/12/07 00:23:46;;;;;;;8.13;5.90;;;;;;;;;;5093031;28;20524;-69
2021/12/07 00:26:35;;;;;;;5.73;5.03;;;;;;;;;;5091499;28;20753;-69
2021/12/07 00:29:03;;;;;;;7.30;6.07;;;;;;;;;;5094221;28;20491;-69
2021/12/07 00:31:39;;;;;;;6.37;5.57;;;;;;;;;;5087822;28;20447;-69
2021/12/07 00:34:13;;;;;;;7.67;6.20;;;;;;;;;;5092968;28;21999;-69
2021/12/07 00:36:44;;;;;;;8.20;6.07;;;;;;;;;;5089142;28;20483;-69
2021/12/07 00:39:13;;;;;;;9.53;6.43;;;;;;;;;;5093489;28;20459;-69
2021/12/07 00:41:42;;;;;;;9.80;6.43;;;;;;;;;;5092866;28;20436;-69
2021/12/07 00:44:10;;;;;;;9.10;6.00;;;;;;;;;;5090026;28;20507;-69
2021/12/07 00:46:38;;;;;;;7.57;6.07;;;;;;;;;;5092354;28;20447;-70
2021/12/07 00:49:06;;;;;;;9.10;6.43;;;;;;;;;;5094285;28;20459;-69
2021/12/07 00:51:34;;;;;;;6.80;6.10;;;;;;;;;;5091547;28;21006;-69
2021/12/07 00:54:03;;;;;;;8.27;6.13;;;;;;;;;;5094056;28;20458;-69
2021/12/07 00:56:31;;;;;;;9.93;6.93;;;;;;;;;;5087358;28;20436;-69
2021/12/07 00:59:01;;;;;;;8.90;7.07;;;;;;;;;;5093567;28;20451;-69
2021/12/07 01:01:29;;;;;;;8.20;6.50;;;;;;;;;;5092181;28;20436;-69
2021/12/07 01:03:57;;;;;;;9.40;6.23;;;;;;;;;;5093746;28;20488;-69
2021/12/07 01:06:30;;;;;;;8.20;5.47;;;;;;;;;;5091949;28;20439;-69
2021/12/07 01:09:12;;;;;;;7.90;5.63;;;;;;;;;;5088283;28;20495;-69
2021/12/07 01:25:39;;;;;;;7.87;5.60;;;;;;;;;;5091238;28;20960;-69
2021/12/07 01:28:17;;;;;;;8.50;6.10;;;;;;;;;;5094290;28;20479;-69
2021/12/07 01:30:52;;;;;;;7.60;5.47;;;;;;;;;;5096366;28;20446;-71
2021/12/07 01:33:36;;;;;;;9.67;6.27;;;;;;;;;;5080037;28;20951;-69
2021/12/07 01:42:46;;;;;;;6.90;5.40;;;;;;;;;;5080188;28;20448;-69
2021/12/07 01:44:49;;;;;;;7.63;5.23;;;;;;;;;;5080107;28;20440;-69
2021/12/07 01:47:40;;;;;;;6.17;5.23;;;;;;;;;;5079920;28;20463;-69
2021/12/07 02:01:12;;;;;;;8.73;5.43;;;;;;;;;;5066397;28;20447;-69
2021/12/07 02:03:42;;;;;;;8.57;6.53;;;;;;;;;;5099660;28;20934;-69
2021/12/07 02:06:12;;;;;;;9.80;6.83;;;;;;;;;;5100021;28;20448;-69
2021/12/07 02:08:40;;;;;;;7.90;6.13;;;;;;;;;;5099500;28;20520;-70
2021/12/07 02:11:08;;;;;;;7.23;6.37;;;;;;;;;;5099723;28;20953;-70
2021/12/07 02:16:24;;;;;;;9.37;6.17;;;;;;;;;;5099991;28;20531;-70
2021/12/07 02:18:53;;;;;;;8.43;6.10;;;;;;;;;;5099546;28;20483;-69
2021/12/07 02:21:24;;;;;;;8.00;6.43;;;;;;;;;;5096144;28;20455;-69
2021/12/07 02:23:53;;;;;;;7.67;6.20;;;;;;;;;;5079584;28;20476;-69
2021/12/07 02:26:21;;;;;;;10.43;6.37;;;;;;;;;;5079517;28;20450;-69
2021/12/07 02:28:52;;;;;;;8.37;6.13;;;;;;;;;;5086503;28;20455;-69
2021/12/07 02:31:20;;;;;;;9.97;6.83;;;;;;;;;;5080477;28;20476;-69
2021/12/07 02:33:49;;;;;;;9.63;6.57;;;;;;;;;;5078989;28;20517;-69
2021/12/07 02:36:17;;;;;;;9.07;6.33;;;;;;;;;;5078707;28;20560;-69
2021/12/07 02:38:46;;;;;;;8.47;6.20;;;;;;;;;;5084776;28;20513;-70
2021/12/07 02:41:14;;;;;;;10.03;6.57;;;;;;;;;;5078537;28;20455;-69
2021/12/07 02:43:42;;;;;;;8.97;6.23;;;;;;;;;;5078883;28;20451;-69
2021/12/07 02:46:10;;;;;;;8.50;6.13;;;;;;;;;;5079005;28;20448;-70
2021/12/07 02:48:38;;;;;;;8.10;5.67;;;;;;;;;;5078784;28;20463;-70
2021/12/07 02:51:07;;;;;;;9.93;6.03;;;;;;;;;;5078864;28;20451;-70
2021/12/07 02:53:36;;;;;;;8.10;5.77;;;;;;;;;;5079849;28;20436;-69
2021/12/07 02:56:06;;;;;;;6.50;5.13;;;;;;;;;;5099019;28;20847;-69
2021/12/07 02:58:35;;;;;;;7.03;5.87;;;;;;;;;;5099038;28;20502;-69
2021/12/07 03:01:09;;;;;;;7.93;5.73;;;;;;;;;;5099152;28;20443;-69
2021/12/07 03:03:42;;;;;;;9.20;5.70;;;;;;;;;;5098815;28;20992;-69
2021/12/07 03:06:18;;;;;;;7.87;5.63;;;;;;;;;;5098951;28;20439;-69
2021/12/07 03:28:13;;;;;;;7.43;5.30;;;;;;;;;;5080110;28;20547;-71
2021/12/07 03:30:41;;;;;;;7.47;5.60;;;;;;;;;;5084849;28;20448;-71
2021/12/07 03:33:09;;;;;;;7.70;5.23;;;;;;;;;;5085468;28;20517;-71
2021/12/07 03:35:37;;;;;;;6.07;5.27;;;;;;;;;;5098191;28;20471;-70
2021/12/07 03:38:06;;;;;;;7.13;5.50;;;;;;;;;;5097776;28;20487;-71
2021/12/07 03:40:35;;;;;;;7.83;5.80;;;;;;;;;;5083579;28;20440;-71
2021/12/07 03:43:03;;;;;;;6.97;5.23;;;;;;;;;;5078186;28;20454;-71
2021/12/07 03:45:33;;;;;;;8.47;5.53;;;;;;;;;;5078265;28;20451;-71
2021/12/07 03:48:02;;;;;;;7.37;5.20;;;;;;;;;;5077928;28;20464;-71
2021/12/07 03:50:30;;;;;;;9.83;6.37;;;;;;;;;;5077849;28;20448;-70
2021/12/07 03:52:58;;;;;;;7.60;5.47;;;;;;;;;;5076871;28;20451;-70
2021/12/07 03:55:26;;;;;;;8.53;5.53;;;;;;;;;;5094607;28;20518;-71
2021/12/07 03:57:54;;;;;;;7.33;5.93;;;;;;;;;;5097517;28;20448;-71
2021/12/07 04:00:23;;;;;;;8.97;5.93;;;;;;;;;;5093199;28;20439;-71
2021/12/07 04:02:54;;;;;;;7.60;5.57;;;;;;;;;;5087503;28;20457;-71
2021/12/07 04:05:23;;;;;;;8.67;6.10;;;;;;;;;;5086862;28;20482;-71
2021/12/07 04:07:51;;;;;;;7.77;6.13;;;;;;;;;;5085244;28;20527;-71
2021/12/07 04:10:20;;;;;;;6.97;5.90;;;;;;;;;;5087685;28;20786;-70
2021/12/07 04:12:49;;;;;;;9.53;6.40;;;;;;;;;;5088171;28;20800;-71
2021/12/07 04:15:18;;;;;;;8.03;6.20;;;;;;;;;;5087643;28;20432;-71
2021/12/07 04:17:46;;;;;;;9.47;5.93;;;;;;;;;;5087388;28;20440;-71
2021/12/07 04:20:17;;;;;;;10.53;6.90;;;;;;;;;;5087405;28;20518;-71
2021/12/07 04:22:45;;;;;;;6.83;5.40;;;;;;;;;;5095396;28;20501;-72
2021/12/07 04:25:14;;;;;;;7.70;6.00;;;;;;;;;;5093836;28;20467;-71
2021/12/07 04:27:42;;;;;;;7.47;5.37;;;;;;;;;;5095563;28;20446;-72
2021/12/07 04:30:13;;;;;;;7.73;5.70;;;;;;;;;;5095997;28;20522;-70
2021/12/07 04:32:42;;;;;;;7.37;5.83;;;;;;;;;;5091607;28;20425;-72
2021/12/07 04:35:10;;;;;;;6.67;5.40;;;;;;;;;;5096151;28;20530;-70
2021/12/07 04:37:40;;;;;;;9.67;6.30;;;;;;;;;;5096375;28;20436;-71
2021/12/07 04:40:09;;;;;;;8.87;5.70;;;;;;;;;;5083716;28;20846;-71
2021/12/07 04:42:37;;;;;;;10.43;6.00;;;;;;;;;;5095868;28;20837;-71
2021/12/07 04:45:09;;;;;;;6.50;5.20;;;;;;;;;;5097184;28;20818;-71
2021/12/07 04:47:53;;;;;;;8.27;6.20;;;;;;;;;;5097317;28;20448;-71
2021/12/07 04:57:35;;;;;;;8.23;6.20;;;;;;;;;;5097512;28;20446;-71
2021/12/07 04:58:55;;;;;;;7.73;6.60;;;;;;;;;;5076947;28;20480;-71
2021/12/07 05:01:24;;;;;;;10.07;6.63;;;;;;;;;;5077236;28;20527;-71
2021/12/07 05:03:55;;;;;;;10.60;6.90;;;;;;;;;;5077265;28;20482;-71
2021/12/07 05:06:27;;;;;;;9.13;6.57;;;;;;;;;;5080621;28;20531;-71
2021/12/07 05:09:00;;;;;;;13.10;7.03;;;;;;;;;;5088559;28;20466;-71
2021/12/07 05:11:45;;;;;;;8.97;6.17;;;;;;;;;;5101106;28;20458;-71
2021/12/07 05:14:18;;;;;;;8.57;5.87;;;;;;;;;;5101101;28;20478;-71
2021/12/07 05:17:02;;;;;;;8.53;6.07;;;;;;;;;;5100794;28;20447;-70
2021/12/07 05:25:31;;;;;;;8.97;6.57;;;;;;;;;;5080485;28;20520;-71
2021/12/07 05:39:04;;;;;;;9.93;6.63;;;;;;;;;;5072711;28;20991;-70
2021/12/07 05:41:34;;;;;;;10.70;6.73;;;;;;;;;;5080204;28;20482;-69
2021/12/07 05:44:03;;;;;;;8.97;6.77;;;;;;;;;;5080355;28;20449;-69
2021/12/07 05:46:31;;;;;;;11.07;6.87;;;;;;;;;;5080350;28;20536;-70
2021/12/07 05:48:59;;;;;;;9.87;6.47;;;;;;;;;;5079856;28;20506;-68
2021/12/07 05:51:27;;;;;;;11.53;7.60;;;;;;;;;;5079638;28;20824;-70
2021/12/07 05:53:55;;;;;;;9.37;7.40;;;;;;;;;;5084217;28;20436;-70
2021/12/07 05:56:23;;;;;;;9.93;7.20;;;;;;;;;;5100246;28;20787;-70
2021/12/07 05:58:52;;;;;;;11.00;7.20;;;;;;;;;;5100144;28;20528;-71
2021/12/07 06:01:20;;;;;;;9.80;6.80;;;;;;;;;;5099949;28;20938;-71
2021/12/07 06:03:48;;;;;;;7.80;7.00;;;;;;;;;;5099889;28;20877;-72
2021/12/07 06:06:17;;;;;;;10.70;7.17;;;;;;;;;;5099810;28;20447;-68
2021/12/07 06:08:45;;;;;;;11.93;7.27;;;;;;;;;;5099626;28;20562;-68
2021/12/07 06:11:12;;;;;;;10.27;7.00;;;;;;;;;;5100100;28;20439;-68
2021/12/07 06:13:40;;;;;;;12.17;7.27;;;;;;;;;;5100113;28;20522;-68
2021/12/07 06:16:10;;;;;;;8.87;6.77;;;;;;;;;;5098538;28;20465;-68
2021/12/07 06:18:38;;;;;;;13.70;7.83;;;;;;;;;;5099754;28;20506;-67
2021/12/07 06:21:06;;;;;;;10.87;6.80;;;;;;;;;;5098527;28;20485;-70
2021/12/07 06:23:34;;;;;;;9.60;7.17;;;;;;;;;;5079000;28;20451;-69
2021/12/07 06:26:03;;;;;;;9.50;8.07;;;;;;;;;;5079534;28;20531;-66
2021/12/07 06:28:31;;;;;;;10.93;7.63;;;;;;;;;;5086796;28;21004;-64
2021/12/07 06:30:59;;;;;;;12.17;7.70;;;;;;;;;;5089302;28;20443;-64
2021/12/07 06:33:29;;;;;;;10.13;7.47;;;;;;;;;;5082052;28;20527;-65
2021/12/07 06:36:00;;;;;;;9.13;6.63;;;;;;;;;;5078718;28;20472;-64
2021/12/07 06:38:28;;;;;;;9.87;7.87;;;;;;;;;;5078530;28;20492;-64
2021/12/07 06:40:57;;;;;;;11.70;7.70;;;;;;;;;;5078927;28;20480;-64
2021/12/07 06:43:25;;;;;;;13.53;7.37;;;;;;;;;;5078526;28;20444;-64
2021/12/07 06:45:53;;;;;;;12.90;8.30;;;;;;;;;;5086628;28;21030;-64
2021/12/07 06:48:21;;;;;;;12.07;8.00;;;;;;;;;;5080236;28;20488;-64
2021/12/07 06:50:51;;;;;;;12.37;8.03;;;;;;;;;;5078605;28;20512;-64
2021/12/07 06:53:19;;;;;;;12.37;8.17;;;;;;;;;;5078237;28;20519;-64
2021/12/07 06:55:47;;;;;;;11.27;8.00;;;;;;;;;;5085917;28;20440;-64
2021/12/07 06:58:15;;;;;;;11.17;8.00;;;;;;;;;;5078304;28;20466;-64
2021/12/07 07:00:43;;;;;;;11.13;7.83;;;;;;;;;;5087640;28;20485;-64
2021/12/07 07:03:11;;;;;;;16.50;8.47;;;;;;;;;;5084533;28;20444;-68
2021/12/07 07:05:39;;;;;;;12.30;9.20;;;;;;;;;;5082414;28;20445;-67
2021/12/07 07:08:09;;;;;;;16.00;9.83;;;;;;;;;;5081545;28;20468;-68
2021/12/07 07:10:37;;;;;;;15.50;9.60;;;;;;;;;;5081705;28;20979;-67
2021/12/07 07:13:05;;;;;;;17.27;10.17;;;;;;;;;;5091712;28;20456;-68
2021/12/07 07:15:33;;;;;;;15.47;9.10;;;;;;;;;;5080105;28;20461;-66
2021/12/07 07:18:01;;;;;;;12.57;8.47;;;;;;;;;;5077977;28;20467;-67
2021/12/07 07:20:29;;;;;;;15.07;8.70;;;;;;;;;;5081751;28;20914;-67
2021/12/07 07:22:57;;;;;;;14.20;10.17;;;;;;;;;;5080260;28;20440;-67
2021/12/07 07:25:27;;;;;;;12.27;8.97;;;;;;;;;;5090564;28;20455;-67
2021/12/07 07:27:55;;;;;;;12.47;8.70;;;;;;;;;;5097814;28;20878;-67
2021/12/07 07:30:23;;;;;;;14.23;9.37;;;;;;;;;;5090021;28;20444;-65
2021/12/07 07:32:51;;;;;;;11.80;8.70;;;;;;;;;;5098235;28;20446;-66
2021/12/07 07:35:20;;;;;;;15.83;9.03;;;;;;;;;;5097565;28;20821;-66
2021/12/07 07:37:48;;;;;;;15.77;8.30;;;;;;;;;;5097139;28;20435;-65
2021/12/07 07:40:18;;;;;;;15.23;9.20;;;;;;;;;;5078937;28;20480;-66
2021/12/07 07:42:48;;;;;;;10.33;7.77;;;;;;;;;;5077672;28;21011;-66
2021/12/07 07:45:16;;;;;;;14.73;8.57;;;;;;;;;;5077573;28;20531;-66
2021/12/07 07:47:44;;;;;;;14.93;8.97;;;;;;;;;;5077672;28;20450;-65
2021/12/07 07:50:13;;;;;;;15.17;9.93;;;;;;;;;;5077455;28;20452;-65
2021/12/07 07:52:41;;;;;;;17.17;9.97;;;;;;;;;;5084835;28;20990;-65
2021/12/07 07:55:10;;;;;;;16.97;9.50;;;;;;;;;;5086773;28;20450;-66
2021/12/07 07:57:38;;;;;;;13.37;8.93;;;;;;;;;;5098063;28;20439;-66
2021/12/07 08:00:10;;;;;;;16.43;10.67;;;;;;;;;;5096818;28;20458;-66
2021/12/07 08:02:38;;;;;;;19.57;11.23;;;;;;;;;;5081536;28;20446;-66
2021/12/07 08:05:06;;;;;;;18.90;10.33;;;;;;;;;;5086603;28;20445;-66
2021/12/07 08:07:34;;;;;;;19.83;12.00;;;;;;;;;;5088985;28;20433;-66
2021/12/07 08:10:03;;;;;;;15.90;10.33;;;;;;;;;;5090014;28;20468;-65
2021/12/07 08:12:32;;;;;;;17.60;10.37;;;;;;;;;;5090101;28;20436;-66
2021/12/07 08:15:00;;;;;;;15.00;10.53;;;;;;;;;;5088929;28;20443;-65
2021/12/07 08:17:29;;;;;;;15.97;9.87;;;;;;;;;;5088756;28;20436;-65
2021/12/07 08:19:57;;;;;;;14.73;10.33;;;;;;;;;;5088560;28;20457;-65
2021/12/07 08:22:28;;;;;;;18.33;9.77;;;;;;;;;;5089251;28;20566;-65
2021/12/07 08:24:56;;;;;;;13.83;9.13;;;;;;;;;;5090241;28;20593;-65
2021/12/07 08:27:24;;;;;;;18.67;10.80;;;;;;;;;;5089081;28;20445;-66
2021/12/07 08:29:57;;;;;;;16.00;10.50;;;;;;;;;;5088742;28;21028;-65
2021/12/07 08:32:25;;;;;;;14.10;10.23;;;;;;;;;;5089250;28;20433;-66
2021/12/07 08:34:54;;;;;;;17.40;10.90;;;;;;;;;;5088814;28;20442;-65
2021/12/07 08:37:22;;;;;;;15.87;10.20;;;;;;;;;;5088529;28;21042;-65
2021/12/07 08:39:50;;;;;;;14.03;9.73;;;;;;;;;;5091037;28;20463;-66
2021/12/07 08:42:19;;;;;;;16.77;9.73;;;;;;;;;;5092454;28;21066;-66
2021/12/07 08:44:48;;;;;;;15.77;8.90;;;;;;;;;;5092657;28;20435;-66
2021/12/07 08:47:16;;;;;;;16.83;9.30;;;;;;;;;;5092891;28;20448;-66
2021/12/07 08:50:09;;;;;;;17.07;9.80;;;;;;;;;;5091957;28;20448;-66
2021/12/07 08:52:37;;;;;;;15.03;9.50;;;;;;;;;;5094567;28;20502;-66
2021/12/07 09:00:37;;;;;;;12.20;9.03;;;;;;;;;;5093944;28;20522;-66
2021/12/07 09:03:05;;;;;;;19.40;9.40;;;;;;;;;;5092604;28;20431;-65
2021/12/07 09:05:36;;;;;;;16.43;10.27;;;;;;;;;;5090654;28;20440;-65
2021/12/07 09:08:04;;;;;;;15.33;9.97;;;;;;;;;;5090895;28;20463;-65
2021/12/07 09:10:32;;;;;;;15.53;10.00;;;;;;;;;;5090408;28;20443;-65
2021/12/07 09:13:00;;;;;;;13.93;9.43;;;;;;;;;;5092017;28;20439;-65
2021/12/07 09:15:28;;;;;;;15.43;8.77;;;;;;;;;;5091679;28;20459;-66
2021/12/07 09:17:56;;;;;;;15.30;9.57;;;;;;;;;;5090857;28;20468;-65
2021/12/07 09:20:24;;;;;;;18.67;9.27;;;;;;;;;;5092622;28;20443;-66
2021/12/07 09:22:53;;;;;;;15.03;9.13;;;;;;;;;;5091397;28;20484;-66
2021/12/07 09:25:22;;;;;;;15.27;9.83;;;;;;;;;;5092866;28;20817;-65
2021/12/07 09:27:50;;;;;;;15.67;10.23;;;;;;;;;;5090941;28;20467;-65
2021/12/07 09:30:19;;;;;;;16.57;10.00;;;;;;;;;;5093016;28;20443;-65
2021/12/07 09:32:48;;;;;;;15.20;9.70;;;;;;;;;;5090656;28;20897;-66
2021/12/07 09:35:16;;;;;;;16.37;10.77;;;;;;;;;;5090438;28;20439;-66
2021/12/07 09:37:46;;;;;;;20.50;10.93;;;;;;;;;;5092685;28;20464;-66
2021/12/07 09:40:17;;;;;;;19.93;11.37;;;;;;;;;;5092145;28;20471;-66
2021/12/07 09:42:45;;;;;;;21.07;11.70;;;;;;;;;;5092864;28;20503;-66
2021/12/07 09:45:14;;;;;;;19.57;11.07;;;;;;;;;;5091147;28;20435;-66
2021/12/07 09:47:43;;;;;;;20.63;11.73;;;;;;;;;;5092133;28;20851;-66
2021/12/07 09:50:12;;;;;;;21.57;13.03;;;;;;;;;;5090608;28;20435;-66
2021/12/07 09:52:40;;;;;;;24.60;13.07;;;;;;;;;;5089537;28;20774;-66
2021/12/07 09:55:08;;;;;;;20.87;13.30;;;;;;;;;;5088372;28;20509;-66
2021/12/07 09:57:37;;;;;;;20.23;11.27;;;;;;;;;;5079698;28;20206;-66
2021/12/07 10:00:07;;;;;;;21.87;13.13;;;;;;;;;;5079793;28;20605;-65
2021/12/07 10:02:35;;;;;;;20.53;13.23;;;;;;;;;;5090427;28;20236;-66
2021/12/07 10:05:03;;;;;;;20.83;11.97;;;;;;;;;;5090067;28;20209;-65
2021/12/07 10:07:32;;;;;;;23.57;11.70;;;;;;;;;;5089239;28;20286;-65
2021/12/07 10:10:00;;;;;;;19.00;11.70;;;;;;;;;;5090125;28;20214;-65
2021/12/07 10:12:28;;;;;;;15.53;10.13;;;;;;;;;;5090908;28;20219;-65
2021/12/07 10:15:04;;;;;;;17.67;10.53;;;;;;;;;;5093393;28;20714;-66
2021/12/07 10:17:36;;;;;;;15.23;9.53;;;;;;;;;;5099622;28;20205;-65
2021/12/07 10:20:19;;;;;;;17.73;11.37;;;;;;;;;;5091440;28;20213;-65
2021/12/07 10:22:51;;;;;;;15.10;10.87;;;;;;;;;;5092247;28;20217;-65
2021/12/07 10:25:25;;;;;;;17.90;10.43;;;;;;;;;;5096649;28;20668;-65
2021/12/07 10:27:55;;;;;;;16.70;9.63;;;;;;;;;;5099501;28;20205;-65
2021/12/07 10:30:25;;;;;;;14.67;8.40;;;;;;;;;;5079236;28;20216;-66
2021/12/07 10:33:00;;;;;;;12.07;8.20;;;;;;;;;;5079449;28;20205;-65
2021/12/07 10:35:29;;;;;;;8.77;6.80;;;;;;;;;;5078572;28;20312;-65
2021/12/07 10:38:11;;;;;;;12.17;7.70;;;;;;;;;;5078532;28;20667;-65
2021/12/07 10:40:53;;;;;;;9.43;6.40;;;;;;;;;;5078715;28;20206;-65
2021/12/07 10:43:36;;;;;;;11.30;6.63;;;;;;;;;;5078581;28;20226;-65
2021/12/07 10:46:24;;;;;;;7.93;5.97;;;;;;;;;;5084059;28;20205;-64
2021/12/07 10:49:07;;;;;;;9.13;6.00;;;;;;;;;;5091854;28;20228;-64
2021/12/07 10:51:36;;;;;;;10.73;6.33;;;;;;;;;;5089545;28;20229;-65
2021/12/07 10:54:04;;;;;;;10.30;6.13;;;;;;;;;;5090096;28;20221;-65
2021/12/07 10:56:32;;;;;;;9.20;5.60;;;;;;;;;;5092290;28;20668;-65
2021/12/07 10:59:01;;;;;;;9.73;5.53;;;;;;;;;;5089926;28;20221;-66
2021/12/07 11:01:35;;;;;;;7.53;5.27;;;;;;;;;;5089916;28;20204;-64
2021/12/07 11:04:19;;;;;;;8.90;5.50;;;;;;;;;;5088547;28;20261;-65
2021/12/07 11:07:07;;;;;;;8.73;5.80;;;;;;;;;;5088831;28;20235;-65
2021/12/07 11:09:39;;;;;;;8.10;5.70;;;;;;;;;;5089153;28;20298;-65
2021/12/07 11:12:08;;;;;;;6.50;5.00;;;;;;;;;;5089693;28;20201;-64
2021/12/07 11:14:39;;;;;;;10.70;5.50;;;;;;;;;;5091569;28;20202;-64
2021/12/07 11:17:09;;;;;;;8.50;4.60;;;;;;;;;;5086940;28;20728;-64
2021/12/07 11:19:37;;;;;;;5.77;4.27;;;;;;;;;;5088731;28;20652;-65
2021/12/07 11:22:05;;;;;;;8.33;5.27;;;;;;;;;;5087038;28;20232;-64
2021/12/07 11:24:40;;;;;;;7.17;4.57;;;;;;;;;;5086013;28;20215;-65
2021/12/07 11:30:00;;;;;;;6.93;4.17;;;;;;;;;;5085443;28;20233;-66
2021/12/07 11:32:30;;;;;;;7.23;4.33;;;;;;;;;;5077876;28;20236;-65
2021/12/07 11:35:07;;;;;;;4.77;3.20;;;;;;;;;;5082345;28;20197;-66
2021/12/07 11:37:36;;;;;;;4.57;3.37;;;;;;;;;;5085239;28;20274;-66
2021/12/07 11:40:05;;;;;;;4.50;3.10;;;;;;;;;;5089789;28;20222;-66
2021/12/07 11:42:38;;;;;;;8.63;3.47;;;;;;;;;;5088264;28;20250;-66
2021/12/07 11:45:09;;;;;;;5.23;3.10;;;;;;;;;;5090800;28;20255;-66
2021/12/07 11:47:40;;;;;;;8.13;3.13;;;;;;;;;;5089420;28;20197;-66
2021/12/07 11:50:14;;;;;;;7.87;3.13;;;;;;;;;;5089093;28;20209;-66
2021/12/07 11:52:42;;;;;;;6.27;3.20;;;;;;;;;;5089707;28;20211;-66
2021/12/07 11:55:10;;;;;;;3.67;2.33;;;;;;;;;;5087562;28;20285;-66
2021/12/07 11:57:39;;;;;;;4.17;2.63;;;;;;;;;;5088748;28;20641;-66
2021/12/07 12:00:08;;;;;;;4.47;2.67;;;;;;;;;;5089102;28;20197;-66
2021/12/07 12:02:36;;;;;;;5.37;2.70;;;;;;;;;;5088255;28;20223;-66
2021/12/07 12:05:06;;;;;;;6.47;2.87;;;;;;;;;;5087031;28;20194;-66
2021/12/07 12:07:36;;;;;;;6.73;2.63;;;;;;;;;;5088036;28;20198;-66
2021/12/07 12:10:04;;;;;;;3.90;2.73;;;;;;;;;;5087729;28;20756;-66
2021/12/07 12:12:36;;;;;;;2.70;2.03;;;;;;;;;;5084952;28;20230;-66
2021/12/07 12:15:18;;;;;;;3.33;2.10;;;;;;;;;;5085869;28;20206;-66
2021/12/07 12:17:53;;;;;;;3.03;2.10;;;;;;;;;;5088138;28;20198;-66
2021/12/07 12:20:31;;;;;;;4.60;2.23;;;;;;;;;;5089130;28;20207;-66
2021/12/07 12:23:02;;;;;;;6.07;2.20;;;;;;;;;;5079080;28;20634;-66
2021/12/07 12:25:30;;;;;;;4.23;2.10;;;;;;;;;;5076973;28;20210;-66
2021/12/07 12:27:59;;;;;;;3.23;2.30;;;;;;;;;;5077234;28;20657;-66
2021/12/07 12:30:28;;;;;;;10.00;2.70;;;;;;;;;;5082002;28;20207;-66
2021/12/07 12:32:59;;;;;;;4.13;2.20;;;;;;;;;;5076961;28;20263;-66
2021/12/07 12:35:30;;;;;;;3.07;1.73;;;;;;;;;;5076183;28;21501;-66
2021/12/07 12:37:58;;;;;;;7.43;2.17;;;;;;;;;;5079902;28;20198;-66
2021/12/07 12:40:28;;;;;;;3.93;2.13;;;;;;;;;;5086405;28;20210;-66
2021/12/07 12:42:57;;;;;;;1.97;1.67;;;;;;;;;;5076842;28;20831;-66
2021/12/07 12:45:28;;;;;;;5.13;2.13;;;;;;;;;;5076671;28;20210;-66
2021/12/07 12:47:58;;;;;;;2.40;1.67;;;;;;;;;;5077007;28;20640;-66
2021/12/07 12:50:32;;;;;;;5.00;1.60;;;;;;;;;;5076664;28;20208;-66
2021/12/07 12:53:03;;;;;;;3.97;1.90;;;;;;;;;;5076409;28;20223;-67
2021/12/07 12:55:40;;;;;;;4.10;1.40;;;;;;;;;;5086569;28;20206;-66
2021/12/07 12:58:10;;;;;;;4.37;1.53;;;;;;;;;;5076544;28;20232;-66
2021/12/07 13:00:58;;;;;;;4.13;2.20;;;;;;;;;;5078902;28;20224;-66
2021/12/07 13:03:26;;;;;;;4.83;1.70;;;;;;;;;;5093073;28;20696;-69
2021/12/07 13:05:59;;;;;;;4.70;2.33;;;;;;;;;;5096359;28;20216;-69
2021/12/07 13:08:29;;;;;;;4.83;1.37;;;;;;;;;;5089064;28;20226;-69
2021/12/07 13:10:59;;;;;;;7.30;1.90;;;;;;;;;;5088888;28;20547;-69
2021/12/07 13:13:29;;;;;;;7.53;2.33;;;;;;;;;;5076899;28;20662;-69
2021/12/07 13:15:57;;;;;;;8.33;2.07;;;;;;;;;;5076799;28;20202;-69
2021/12/07 13:18:31;;;;;;;3.13;1.53;;;;;;;;;;5083735;28;20229;-69
2021/12/07 13:21:16;;;;;;;2.70;1.70;;;;;;;;;;5095052;28;20244;-69
2021/12/07 13:23:58;;;;;;;7.27;2.40;;;;;;;;;;5076419;28;20710;-67
2021/12/07 13:26:25;;;;;;;4.33;1.93;;;;;;;;;;5078785;28;20285;-66
2021/12/07 13:29:02;;;;;;;3.50;1.77;;;;;;;;;;5088131;28;20223;-66
2021/12/07 13:31:36;;;;;;;3.43;1.73;;;;;;;;;;5081501;28;20234;-66
2021/12/07 13:34:04;;;;;;;6.87;2.10;;;;;;;;;;5080229;28;20238;-67
2021/12/07 13:36:37;;;;;;;3.90;2.10;;;;;;;;;;5079400;28;20234;-66
2021/12/07 13:39:23;;;;;;;11.37;2.00;;;;;;;;;;5089161;28;20253;-67
2021/12/07 13:41:56;;;;;;;9.07;2.07;;;;;;;;;;5069640;28;20217;-67
2021/12/07 13:44:24;;;;;;;3.77;1.80;;;;;;;;;;5079577;28;20234;-67
2021/12/07 13:46:53;;;;;;;6.83;2.07;;;;;;;;;;5079560;28;20212;-67
2021/12/07 13:49:21;;;;;;;9.10;3.47;;;;;;;;;;5079510;28;20226;-67
2021/12/07 13:51:49;;;;;;;3.67;1.83;;;;;;;;;;5079114;28;20218;-67
2021/12/07 13:54:18;;;;;;;7.63;1.70;;;;;;;;;;5084677;28;20703;-67
2021/12/07 13:56:46;;;;;;;5.23;1.87;;;;;;;;;;5088766;28;20221;-67
2021/12/07 13:59:17;;;;;;;4.77;2.03;;;;;;;;;;5079394;28;20598;-67
2021/12/07 14:01:48;;;;;;;4.93;2.00;;;;;;;;;;5094610;28;20198;-67
2021/12/07 14:04:16;;;;;;;4.20;2.60;;;;;;;;;;5099488;28;20692;-67
2021/12/07 14:06:46;;;;;;;2.70;1.93;;;;;;;;;;5099133;28;20292;-67
2021/12/07 14:09:14;;;;;;;4.30;1.60;;;;;;;;;;5099590;28;20225;-67
2021/12/07 14:11:51;;;;;;;5.57;2.10;;;;;;;;;;5099415;28;20205;-67
2021/12/07 14:14:23;;;;;;;6.40;1.90;;;;;;;;;;5099159;28;20198;-67
2021/12/07 14:16:51;;;;;;;4.13;1.70;;;;;;;;;;5099728;28;20206;-67
2021/12/07 14:19:19;;;;;;;7.60;2.47;;;;;;;;;;5098996;28;20233;-67
2021/12/07 14:21:47;;;;;;;5.77;2.23;;;;;;;;;;5099001;28;20210;-67
2021/12/07 14:24:19;;;;;;;7.53;2.40;;;;;;;;;;5081259;28;20230;-67
2021/12/07 14:26:47;;;;;;;5.07;1.90;;;;;;;;;;5079113;28;20587;-67
2021/12/07 14:29:17;;;;;;;2.17;1.73;;;;;;;;;;5084261;28;20558;-68
2021/12/07 14:31:47;;;;;;;4.30;1.83;;;;;;;;;;5079463;28;20278;-67
2021/12/07 14:34:17;;;;;;;8.03;1.97;;;;;;;;;;5078814;28;20285;-67
2021/12/07 14:36:46;;;;;;;9.57;1.90;;;;;;;;;;5084778;28;20708;-67
2021/12/07 14:39:16;;;;;;;4.77;2.03;;;;;;;;;;5097994;28;20235;-67
2021/12/07 14:41:49;;;;;;;3.97;1.87;;;;;;;;;;5095169;28;20237;-68
2021/12/07 14:44:18;;;;;;;4.53;2.10;;;;;;;;;;5078471;28;20230;-65
2021/12/07 14:46:49;;;;;;;4.27;2.63;;;;;;;;;;5078331;28;20297;-67
2021/12/07 14:49:22;;;;;;;7.50;2.93;;;;;;;;;;5089460;28;20718;-67
2021/12/07 14:51:50;;;;;;;5.70;2.00;;;;;;;;;;5089055;28;20204;-67
2021/12/07 14:54:18;;;;;;;6.87;2.37;;;;;;;;;;5090910;28;20193;-67
2021/12/07 14:56:48;;;;;;;4.83;2.27;;;;;;;;;;5090781;28;20194;-66
2021/12/07 14:59:17;;;;;;;5.07;1.83;;;;;;;;;;5091840;28;20628;-67
2021/12/07 15:01:46;;;;;;;7.20;2.77;;;;;;;;;;5090155;28;20194;-67
2021/12/07 15:04:17;;;;;;;5.43;2.27;;;;;;;;;;5086511;28;20897;-70
2021/12/07 15:06:48;;;;;;;3.53;1.87;;;;;;;;;;5077971;28;20447;-70
2021/12/07 15:09:16;;;;;;;2.50;1.63;;;;;;;;;;5078085;28;20256;-70
2021/12/07 15:11:45;;;;;;;2.40;1.73;;;;;;;;;;5091071;28;20201;-70
2021/12/07 15:14:14;;;;;;;7.67;2.10;;;;;;;;;;5097625;28;20556;-70
2021/12/07 15:16:44;;;;;;;4.83;2.00;;;;;;;;;;5099048;28;20475;-70
2021/12/07 15:19:12;;;;;;;5.80;1.97;;;;;;;;;;5098188;28;20278;-70
2021/12/07 15:21:42;;;;;;;8.03;2.00;;;;;;;;;;5089598;28;20744;-70
2021/12/07 15:24:11;;;;;;;4.73;2.17;;;;;;;;;;5077648;28;20586;-70
2021/12/07 15:26:39;;;;;;;8.40;2.63;;;;;;;;;;5077890;28;20210;-70
2021/12/07 15:29:08;;;;;;;5.57;1.97;;;;;;;;;;5084755;28;20232;-70
2021/12/07 15:31:38;;;;;;;5.33;2.00;;;;;;;;;;5088248;28;20198;-70
2021/12/07 15:34:07;;;;;;;5.00;2.10;;;;;;;;;;5077551;28;20287;-70
2021/12/07 15:36:40;;;;;;;7.07;2.70;;;;;;;;;;5077330;28;20320;-71
2021/12/07 15:39:10;;;;;;;5.40;2.30;;;;;;;;;;5084374;28;20268;-66
2021/12/07 15:41:39;;;;;;;4.47;2.07;;;;;;;;;;5077703;28;20206;-66
2021/12/07 15:44:07;;;;;;;5.57;2.80;;;;;;;;;;5077900;28;20208;-66
2021/12/07 15:46:43;;;;;;;8.30;2.70;;;;;;;;;;5077362;28;20704;-65
2021/12/07 15:49:11;;;;;;;6.07;2.47;;;;;;;;;;5077274;28;20225;-66
2021/12/07 15:51:47;;;;;;;6.53;2.40;;;;;;;;;;5077054;28;20953;-66
2021/12/07 15:54:17;;;;;;;5.47;2.57;;;;;;;;;;5085663;28;20205;-67
2021/12/07 15:56:45;;;;;;;3.03;2.13;;;;;;;;;;5089271;28;20205;-67
2021/12/07 15:59:14;;;;;;;8.83;2.43;;;;;;;;;;5088257;28;20312;-67
2021/12/07 16:01:42;;;;;;;6.90;2.93;;;;;;;;;;5086363;28;20289;-66
2021/12/07 16:04:21;;;;;;;9.17;2.90;;;;;;;;;;5088701;28;20194;-67
2021/12/07 16:06:49;;;;;;;5.80;2.60;;;;;;;;;;5084840;28;20278;-66
2021/12/07 16:09:20;;;;;;;5.50;2.50;;;;;;;;;;5082991;28;20225;-66
2021/12/07 16:11:48;;;;;;;7.03;2.50;;;;;;;;;;5094127;28;20285;-67
2021/12/07 16:14:27;;;;;;;4.47;2.67;;;;;;;;;;5091095;28;20284;-67
2021/12/07 16:17:00;;;;;;;6.70;2.10;;;;;;;;;;5076382;28;20284;-66
2021/12/07 16:19:28;;;;;;;6.07;2.00;;;;;;;;;;5076921;28;20592;-68
2021/12/07 16:21:56;;;;;;;3.77;2.07;;;;;;;;;;5091200;28;20459;-67